createdAt,value
2018-07-25T10:04:53.063Z,41.40
2018-07-25T10:07:21.496Z,41.30
2018-07-25T10:09:49.835Z,41.00
2018-07-25T10:12:18.193Z,39.90
2018-07-25T10:14:46.587Z,39.50
2018-07-25T10:17:15.020Z,39.40
2018-07-25T10:19:43.485Z,39.60
2018-07-25T10:22:11.797Z,39.30
2018-07-25T10:24:40.216Z,38.90
2018-07-25T10:27:08.671Z,38.40
2018-07-25T10:29:37.035Z,38.20
2018-07-25T10:32:05.473Z,38.30
2018-07-25T10:34:33.824Z,37.00
2018-07-25T10:37:02.291Z,36.70
2018-07-25T10:39:30.667Z,36.80
2018-07-25T10:41:59.082Z,36.90
2018-07-25T10:44:27.422Z,37.00
2018-07-25T10:46:55.794Z,37.30
2018-07-25T10:49:24.204Z,36.50
2018-07-25T10:51:52.648Z,35.90
2018-07-25T10:54:21.006Z,36.60
2018-07-25T10:56:49.360Z,36.60
2018-07-25T10:59:17.764Z,35.80
2018-07-25T11:01:46.417Z,34.90
2018-07-25T11:04:19.003Z,35.70
2018-07-25T11:06:47.490Z,36.30
2018-07-25T11:09:15.869Z,36.00
2018-07-25T11:11:44.370Z,35.50
2018-07-25T11:14:12.773Z,36.00
2018-07-25T11:16:41.097Z,36.80
2018-07-25T11:19:09.484Z,37.30
2018-07-25T11:21:37.813Z,36.40
2018-07-25T11:24:06.822Z,36.40
2018-07-25T11:26:35.179Z,37.50
2018-07-25T11:29:03.670Z,37.70
2018-07-25T11:31:32.002Z,39.10
2018-07-25T11:34:00.499Z,38.60
2018-07-25T11:36:28.912Z,37.70
2018-07-25T11:38:57.265Z,38.50
2018-07-25T11:41:25.578Z,39.20
2018-07-25T11:43:54.004Z,38.60
2018-07-25T11:46:22.350Z,38.70
2018-07-25T11:48:50.698Z,37.40
2018-07-25T11:51:19.060Z,37.80
2018-07-25T11:53:47.410Z,38.40
2018-07-25T11:56:15.801Z,38.00
2018-07-25T11:58:44.179Z,37.40
2018-07-25T12:01:12.533Z,37.00
2018-07-25T12:03:40.935Z,35.90
2018-07-25T12:06:09.616Z,35.40
2018-07-25T12:08:37.931Z,37.40
2018-07-25T12:11:07.065Z,36.90
2018-07-25T12:13:35.429Z,36.30
2018-07-25T12:16:03.808Z,37.60
2018-07-25T12:18:32.158Z,37.10
2018-07-25T12:21:00.617Z,37.30
2018-07-25T12:23:29.011Z,37.30
2018-07-25T12:25:57.421Z,36.40
2018-07-25T12:28:25.753Z,36.40
2018-07-25T12:30:54.151Z,36.20
2018-07-25T12:33:22.594Z,36.90
2018-07-25T12:35:50.934Z,37.70
2018-07-25T12:38:19.335Z,38.50
2018-07-25T12:40:47.661Z,38.60
2018-07-25T12:43:16.029Z,37.30
2018-07-25T12:45:44.389Z,37.30
2018-07-25T12:48:12.770Z,37.50
2018-07-25T12:50:41.362Z,37.80
2018-07-25T12:53:09.769Z,37.70
2018-07-25T12:55:38.143Z,37.20
2018-07-25T12:58:06.554Z,37.70
2018-07-25T13:00:35.216Z,38.60
2018-07-25T13:03:03.827Z,36.30
2018-07-25T13:05:32.232Z,36.40
2018-07-25T13:08:00.647Z,36.30
2018-07-25T13:10:29.036Z,36.90
2018-07-25T13:12:57.413Z,36.20
2018-07-25T13:15:25.772Z,36.80
2018-07-25T13:17:54.197Z,35.60
2018-07-25T13:20:22.591Z,35.50
2018-07-25T13:22:51.039Z,35.00
2018-07-25T13:25:19.401Z,35.00
2018-07-25T13:27:47.706Z,35.20
2018-07-25T13:30:16.090Z,36.00
2018-07-25T13:32:44.413Z,36.00
2018-07-25T13:35:12.809Z,36.30
2018-07-25T13:37:41.135Z,35.60
2018-07-25T13:40:09.578Z,35.20
2018-07-25T13:42:37.937Z,35.90
2018-07-25T13:45:06.413Z,36.20
2018-07-25T13:47:34.871Z,36.40
2018-07-25T13:50:03.430Z,36.90
2018-07-25T13:52:31.892Z,37.40
2018-07-25T13:55:00.269Z,37.70
2018-07-25T13:57:28.629Z,37.90
2018-07-25T13:59:57.015Z,38.40
2018-07-25T14:02:25.378Z,39.00
2018-07-25T14:04:53.808Z,38.70
2018-07-25T14:07:22.224Z,39.10
2018-07-25T14:09:50.709Z,40.00
2018-07-25T14:12:19.080Z,41.00
2018-07-25T14:14:47.468Z,41.30
2018-07-25T14:17:15.946Z,41.20
2018-07-25T14:19:44.318Z,41.50
2018-07-25T14:22:12.689Z,41.60
2018-07-25T14:24:41.152Z,41.20
2018-07-25T14:27:09.588Z,40.30
2018-07-25T14:29:37.902Z,39.80
2018-07-25T14:32:06.751Z,40.20
2018-07-25T14:34:35.201Z,39.80
2018-07-25T14:37:03.643Z,39.70
2018-07-25T14:39:31.985Z,38.90
2018-07-25T14:42:00.322Z,38.90
2018-07-25T14:44:28.795Z,38.50
2018-07-25T14:46:57.139Z,38.10
2018-07-25T14:49:25.395Z,38.40
2018-07-25T14:51:53.775Z,38.40
2018-07-25T14:54:22.223Z,37.90
2018-07-25T14:56:50.542Z,38.40
2018-07-25T14:59:18.914Z,37.10
2018-07-25T15:01:47.301Z,36.80
2018-07-25T15:04:15.682Z,37.20
2018-07-25T15:06:44.367Z,36.30
2018-07-25T15:09:15.045Z,37.00
2018-07-25T15:11:45.192Z,36.30
2018-07-25T15:14:14.300Z,36.50
2018-07-25T15:16:43.055Z,37.20
2018-07-25T15:19:16.264Z,37.30
2018-07-25T15:21:45.100Z,37.90
2018-07-25T15:24:13.966Z,38.20
2018-07-25T15:26:42.564Z,38.50
2018-07-25T15:29:11.763Z,37.40
2018-07-25T15:31:42.296Z,38.40
2018-07-25T15:34:11.551Z,38.50
2018-07-25T15:36:46.573Z,38.60
2018-07-25T15:39:23.986Z,38.10
2018-07-25T15:41:54.284Z,37.90
2018-07-25T15:44:24.746Z,38.60
2018-07-25T15:46:54.138Z,39.10
2018-07-25T15:49:25.397Z,39.50
2018-07-25T15:51:54.634Z,39.50
2018-07-25T15:54:24.035Z,38.30
2018-07-25T15:56:52.642Z,38.70
2018-07-25T15:59:23.001Z,39.50
2018-07-25T16:01:56.558Z,38.50
2018-07-25T16:04:25.576Z,38.50
2018-07-25T16:09:28.454Z,39.00
2018-07-25T16:11:58.058Z,39.10
2018-07-25T16:14:27.097Z,39.50
2018-07-25T16:16:57.211Z,39.40
2018-07-25T16:19:26.469Z,39.90
2018-07-25T16:21:55.289Z,39.40
2018-07-25T16:24:24.754Z,39.50
2018-07-25T16:26:54.694Z,39.60
2018-07-25T16:29:24.019Z,39.50
2018-07-25T16:31:53.146Z,39.30
2018-07-25T16:34:25.384Z,39.80
2018-07-25T16:37:00.357Z,39.40
2018-07-25T16:39:30.033Z,38.80
2018-07-25T16:41:58.908Z,38.90
2018-07-25T16:44:29.105Z,39.50
2018-07-25T16:46:58.330Z,39.60
2018-07-25T16:49:27.734Z,40.20
2018-07-25T16:51:56.832Z,39.70
2018-07-25T16:56:54.592Z,40.20
2018-07-25T16:59:24.341Z,40.20
2018-07-25T17:01:53.058Z,40.70
2018-07-25T17:04:22.918Z,42.30
2018-07-25T17:06:52.046Z,44.30
2018-07-25T17:09:26.308Z,46.10
2018-07-25T17:11:56.921Z,46.60
2018-07-25T17:14:27.156Z,48.00
2018-07-25T17:16:55.927Z,48.50
2018-07-25T17:19:24.652Z,49.40
2018-07-25T17:21:54.041Z,48.60
2018-07-25T17:24:24.125Z,47.40
2018-07-25T17:26:53.798Z,49.30
2018-07-25T17:29:22.547Z,51.10
2018-07-25T17:31:51.559Z,51.30
2018-07-25T17:34:20.669Z,51.60
2018-07-25T17:36:50.628Z,51.80
2018-07-25T17:39:19.665Z,51.40
2018-07-25T17:41:49.650Z,51.90
2018-07-25T17:44:20.926Z,52.30
2018-07-25T17:46:49.731Z,52.70
2018-07-25T17:49:19.921Z,52.90
2018-07-25T17:51:49.293Z,55.80
2018-07-25T17:54:18.866Z,57.10
2018-07-25T17:56:49.052Z,57.70
2018-07-25T17:59:24.439Z,59.00
2018-07-25T18:01:53.786Z,58.30
2018-07-25T18:04:23.431Z,58.00
2018-07-25T18:06:57.555Z,57.80
2018-07-25T18:09:26.878Z,57.30
2018-07-25T18:11:56.494Z,57.00
2018-07-25T18:14:25.940Z,57.30
2018-07-25T18:16:55.020Z,58.10
2018-07-25T18:19:24.822Z,58.90
2018-07-25T18:21:53.476Z,59.20
2018-07-25T18:24:22.427Z,59.40
2018-07-25T18:26:52.412Z,58.50
2018-07-25T18:29:21.460Z,58.80
2018-07-25T18:31:50.728Z,58.40
2018-07-25T18:34:19.845Z,57.90
2018-07-25T18:36:49.372Z,57.20
2018-07-25T18:39:18.422Z,56.70
2018-07-25T18:41:47.203Z,56.40
2018-07-25T18:44:21.148Z,56.60
2018-07-25T18:46:51.158Z,57.00
2018-07-25T18:49:21.026Z,56.20
2018-07-25T18:51:50.448Z,56.80
2018-07-25T18:54:20.881Z,56.80
2018-07-25T18:56:50.256Z,56.90
2018-07-25T18:59:20.330Z,57.00
2018-07-25T19:01:50.116Z,56.80
2018-07-25T19:04:19.736Z,56.60
2018-07-25T19:06:49.465Z,57.00
2018-07-25T19:09:19.004Z,57.10
2018-07-25T19:14:26.242Z,57.80
2018-07-25T19:16:55.844Z,57.80
2018-07-25T19:19:25.757Z,58.00
2018-07-25T19:21:56.013Z,58.20
2018-07-25T19:24:26.360Z,58.50
2018-07-25T19:26:56.217Z,58.60
2018-07-25T19:29:26.716Z,58.90
2018-07-25T19:31:56.253Z,59.10
2018-07-25T19:34:30.467Z,59.30
2018-07-25T19:37:01.862Z,59.20
2018-07-25T19:39:38.204Z,59.20
2018-07-25T19:42:09.239Z,59.20
2018-07-25T19:44:38.597Z,59.30
2018-07-25T19:47:08.369Z,59.70
2018-07-25T19:49:37.303Z,59.60
2018-07-25T19:52:06.499Z,59.40
2018-07-25T19:54:35.855Z,60.20
2018-07-25T19:57:04.844Z,60.10
2018-07-25T19:59:33.895Z,60.00
2018-07-25T20:02:03.138Z,60.40
2018-07-25T20:04:32.902Z,60.10
2018-07-25T20:07:02.585Z,60.20
2018-07-25T20:09:32.589Z,60.30
2018-07-25T20:12:01.824Z,60.50
2018-07-25T20:14:36.320Z,60.70
2018-07-25T20:17:05.658Z,60.30
2018-07-25T20:19:34.505Z,60.40
2018-07-25T20:22:07.355Z,60.60
2018-07-25T20:24:36.271Z,60.20
2018-07-25T20:27:06.820Z,60.00
2018-07-25T20:29:36.524Z,60.10
2018-07-25T20:32:07.013Z,59.90
2018-07-25T20:34:36.442Z,59.70
2018-07-25T20:37:05.419Z,59.30
2018-07-25T20:39:34.394Z,59.60
2018-07-25T20:42:03.651Z,59.60
2018-07-25T20:44:33.669Z,60.20
2018-07-25T20:47:03.921Z,59.60
2018-07-25T20:49:32.926Z,59.70
2018-07-25T20:52:03.249Z,60.00
2018-07-25T20:54:33.770Z,60.00
2018-07-25T20:57:03.465Z,60.40
2018-07-25T20:59:32.785Z,60.60
2018-07-25T21:02:03.038Z,60.70
2018-07-25T21:04:32.285Z,60.90
2018-07-25T21:07:01.546Z,61.10
2018-07-25T21:09:30.200Z,62.20
2018-07-25T21:11:59.860Z,61.50
2018-07-25T21:14:29.933Z,62.30
2018-07-25T21:16:59.556Z,61.80
2018-07-25T21:19:28.980Z,61.80
2018-07-25T21:21:57.422Z,61.90
2018-07-25T21:24:27.533Z,62.80
2018-07-25T21:26:57.011Z,62.00
2018-07-25T21:29:30.476Z,62.20
2018-07-25T21:32:00.530Z,62.40
2018-07-25T21:34:30.363Z,62.60
2018-07-25T21:36:59.481Z,62.90
2018-07-25T21:39:29.085Z,63.10
2018-07-25T21:41:58.661Z,63.20
2018-07-25T21:44:28.580Z,63.60
2018-07-25T21:46:59.819Z,64.00
2018-07-25T21:49:29.366Z,64.40
2018-07-25T21:51:58.141Z,64.80
2018-07-25T21:54:26.954Z,65.20
2018-07-25T21:59:26.502Z,66.40
2018-07-25T22:04:27.020Z,67.10
2018-07-25T22:06:56.191Z,67.10
2018-07-25T22:11:58.214Z,67.70
2018-07-25T22:14:27.344Z,68.00
2018-07-25T22:16:57.271Z,68.30
2018-07-25T22:19:26.971Z,68.40
2018-07-25T22:22:00.725Z,68.70
2018-07-25T22:24:29.787Z,69.10
2018-07-25T22:26:58.628Z,69.60
2018-07-25T22:29:32.055Z,69.60
2018-07-25T22:32:07.101Z,70.60
2018-07-25T22:34:36.386Z,71.00
2018-07-25T22:37:07.004Z,71.40
2018-07-25T22:39:36.472Z,71.70
2018-07-25T22:42:06.779Z,72.80
2018-07-25T22:44:37.393Z,73.10
2018-07-25T22:47:07.362Z,73.30
2018-07-25T22:49:37.015Z,73.60
2018-07-25T22:52:05.942Z,74.10
2018-07-25T22:54:40.429Z,74.30
2018-07-25T22:57:10.880Z,74.50
2018-07-25T22:59:41.686Z,75.00
2018-07-25T23:02:10.763Z,74.90
2018-07-25T23:04:41.048Z,76.20
2018-07-25T23:07:10.097Z,76.80
2018-07-25T23:09:39.278Z,78.00
2018-07-25T23:12:08.753Z,78.50
2018-07-25T23:14:38.026Z,78.70
2018-07-25T23:17:08.969Z,78.60
2018-07-25T23:19:38.121Z,78.80
2018-07-25T23:22:08.164Z,78.90
2018-07-25T23:24:38.208Z,79.20
2018-07-25T23:27:08.972Z,79.90
2018-07-25T23:29:39.678Z,80.10
2018-07-25T23:32:09.261Z,80.30
2018-07-25T23:34:40.179Z,80.30
2018-07-25T23:37:10.601Z,80.40
2018-07-25T23:39:41.710Z,81.00
2018-07-25T23:42:14.324Z,81.00
2018-07-25T23:44:48.034Z,81.50
2018-07-25T23:47:16.493Z,81.50
2018-07-25T23:49:50.103Z,82.10
2018-07-25T23:52:19.420Z,82.50
2018-07-25T23:54:49.357Z,83.70
2018-07-25T23:57:19.437Z,84.50
2018-07-25T23:59:58.245Z,84.60
